Time;durP1;ratioP1;P1;durP2;ratioP2;P2;SDS_P1;SDS_P2;PMS_P1;PMS_P2;Temp;Humidity;BMP_temperature;BMP_pressure;BME280_temperature;BME280_humidity;BME280_pressure;Samples;Min_cycle;Max_cycle;Signal;HPM_P1;HPM_P2
2024/03/08 00:02:14;;;;;;;;;;;;;;;;;;5012275;28;21685;-64
2024/03/08 00:04:40;;;;;;;;;;;;;;;;;;5012099;28;19960;-62
2024/03/08 00:07:06;;;;;;;;;;;;;;;;;;5019511;28;20490;-62
2024/03/08 00:09:32;;;;;;;;;;;;;;;;;;5021207;28;19924;-63
2024/03/08 00:11:58;;;;;;;;;;;;;;;;;;5014459;28;19913;-62
2024/03/08 00:14:24;;;;;;;;;;;;;;;;;;5014106;28;19918;-63
2024/03/08 00:16:50;;;;;;;;;;;;;;;;;;5017858;28;19928;-61
2024/03/08 00:19:16;;;;;;;;;;;;;;;;;;5012653;28;19927;-62
2024/03/08 00:21:42;;;;;;;;;;;;;;;;;;5014826;28;19981;-62
2024/03/08 00:24:07;;;;;;;;;;;;;;;;;;5016202;28;19958;-62
2024/03/08 00:26:33;;;;;;;;;;;;;;;;;;5013268;28;20017;-57
2024/03/08 00:28:59;;;;;;;;;;;;;;;;;;5017690;28;19913;-62
2024/03/08 00:31:25;;;;;;;;;;;;;;;;;;5017186;28;20047;-61
2024/03/08 00:33:52;;;;;;;;;;;;;;;;;;5023527;28;19920;-60
2024/03/08 00:36:18;;;;;;;;;;;;;;;;;;5015197;28;20067;-61
2024/03/08 00:38:44;;;;;;;;;;;;;;;;;;5018534;28;20008;-61
2024/03/08 00:41:10;;;;;;;;;;;;;;;;;;5019260;28;19912;-63
2024/03/08 00:43:36;;;;;;;;;;;;;;;;;;5014828;28;19921;-62
2024/03/08 00:46:01;;;;;;;;;;;;;;;;;;5011404;28;19913;-62
2024/03/08 00:48:27;;;;;;;;;;;;;;;;;;5015457;28;19913;-63
2024/03/08 00:50:53;;;;;;;;;;;;;;;;;;5014306;28;19961;-62
2024/03/08 00:53:19;;;;;;;;;;;;;;;;;;5015607;28;19928;-62
2024/03/08 00:55:46;;;;;;;;;;;;;;;;;;5013401;28;19917;-60
2024/03/08 00:58:12;;;;;;;;;;;;;;;;;;5016052;28;19924;-63
2024/03/08 01:00:38;;;;;;;;;;;;;;;;;;5013429;28;19913;-61
2024/03/08 01:03:04;;;;;;;;;;;;;;;;;;5014498;28;19921;-61
2024/03/08 01:05:30;;;;;;;;;;;;;;;;;;5016909;28;20403;-61
2024/03/08 01:07:56;;;;;;;;;;;;;;;;;;5017678;28;20036;-59
2024/03/08 01:10:22;;;;;;;;;;;;;;;;;;5015811;28;19972;-62
2024/03/08 01:12:49;;;;;;;;;;;;;;;;;;5014561;28;19913;-56
2024/03/08 01:15:15;;;;;;;;;;;;;;;;;;5011147;28;19925;-62
2024/03/08 01:17:41;;;;;;;;;;;;;;;;;;5016457;28;19959;-63
2024/03/08 01:20:07;;;;;;;;;;;;;;;;;;5018383;28;19948;-60
2024/03/08 01:22:33;;;;;;;;;;;;;;;;;;5019648;28;20004;-61
2024/03/08 01:24:59;;;;;;;;;;;;;;;;;;5014646;28;19955;-61
2024/03/08 01:27:24;;;;;;;;;;;;;;;;;;5016156;28;20368;-62
2024/03/08 01:29:50;;;;;;;;;;;;;;;;;;5016813;28;19996;-61
2024/03/08 01:32:16;;;;;;;;;;;;;;;;;;5011759;28;20407;-60
2024/03/08 01:34:44;;;;;;;;;;;;;;;;;;5015366;28;19988;-62
2024/03/08 01:37:10;;;;;;;;;;;;;;;;;;5012258;28;19921;-61
2024/03/08 01:39:36;;;;;;;;;;;;;;;;;;5011975;28;20560;-62
2024/03/08 01:42:02;;;;;;;;;;;;;;;;;;5014409;28;19925;-61
2024/03/08 01:44:28;;;;;;;;;;;;;;;;;;5013656;28;19960;-62
2024/03/08 01:46:54;;;;;;;;;;;;;;;;;;5012085;28;19914;-60
2024/03/08 01:49:20;;;;;;;;;;;;;;;;;;5016587;28;19925;-61
2024/03/08 01:51:46;;;;;;;;;;;;;;;;;;5018756;28;19913;-61
2024/03/08 01:54:13;;;;;;;;;;;;;;;;;;5024116;28;19917;-62
2024/03/08 01:56:39;;;;;;;;;;;;;;;;;;5012209;28;19917;-61
2024/03/08 01:59:07;;;;;;;;;;;;;;;;;;5012869;28;19992;-61
2024/03/08 02:01:33;;;;;;;;;;;;;;;;;;5011439;28;19979;-61
2024/03/08 02:03:59;;;;;;;;;;;;;;;;;;5011806;28;20378;-62
2024/03/08 02:06:25;;;;;;;;;;;;;;;;;;5016729;28;19917;-62
2024/03/08 02:08:51;;;;;;;;;;;;;;;;;;5019497;28;19913;-63
2024/03/08 02:11:17;;;;;;;;;;;;;;;;;;5018320;28;20300;-62
2024/03/08 02:13:43;;;;;;;;;;;;;;;;;;5017791;28;19967;-62
2024/03/08 02:16:09;;;;;;;;;;;;;;;;;;5016491;28;20004;-61
2024/03/08 02:18:34;;;;;;;;;;;;;;;;;;5012072;28;19921;-61
2024/03/08 02:21:00;;;;;;;;;;;;;;;;;;5014715;28;19948;-63
2024/03/08 02:23:26;;;;;;;;;;;;;;;;;;5009524;28;20008;-62
2024/03/08 02:25:53;;;;;;;;;;;;;;;;;;5013542;28;20381;-58
2024/03/08 02:28:19;;;;;;;;;;;;;;;;;;5013237;28;19917;-63
2024/03/08 02:30:46;;;;;;;;;;;;;;;;;;5012010;28;19913;-60
2024/03/08 02:33:12;;;;;;;;;;;;;;;;;;5014282;28;19917;-60
2024/03/08 02:35:38;;;;;;;;;;;;;;;;;;5014522;28;19918;-59
2024/03/08 02:38:04;;;;;;;;;;;;;;;;;;5012728;28;19964;-63
2024/03/08 02:40:30;;;;;;;;;;;;;;;;;;5019050;28;20418;-62
2024/03/08 02:42:56;;;;;;;;;;;;;;;;;;5009366;28;19993;-60
2024/03/08 02:45:22;;;;;;;;;;;;;;;;;;5013284;28;20605;-63
2024/03/08 02:47:50;;;;;;;;;;;;;;;;;;5018792;28;19913;-63
2024/03/08 02:50:16;;;;;;;;;;;;;;;;;;5016850;28;20383;-63
2024/03/08 02:52:41;;;;;;;;;;;;;;;;;;5019242;28;19920;-62
2024/03/08 02:55:08;;;;;;;;;;;;;;;;;;5015733;28;20009;-62
2024/03/08 02:57:34;;;;;;;;;;;;;;;;;;5016126;28;19913;-62
2024/03/08 02:59:59;;;;;;;;;;;;;;;;;;5013918;28;19925;-62
2024/03/08 03:02:26;;;;;;;;;;;;;;;;;;5024410;28;19913;-62
2024/03/08 03:04:52;;;;;;;;;;;;;;;;;;5019523;28;19929;-60
2024/03/08 03:07:18;;;;;;;;;;;;;;;;;;5017487;28;19952;-60
2024/03/08 03:09:44;;;;;;;;;;;;;;;;;;5011671;28;19921;-62
2024/03/08 03:12:09;;;;;;;;;;;;;;;;;;5019807;28;19913;-60
2024/03/08 03:14:38;;;;;;;;;;;;;;;;;;5016354;28;20359;-62
2024/03/08 03:17:04;;;;;;;;;;;;;;;;;;5012698;28;20052;-61
2024/03/08 03:19:30;;;;;;;;;;;;;;;;;;5016391;28;19914;-60
2024/03/08 03:21:56;;;;;;;;;;;;;;;;;;5018443;28;19935;-62
2024/03/08 03:24:23;;;;;;;;;;;;;;;;;;5016815;28;19917;-61
2024/03/08 03:26:49;;;;;;;;;;;;;;;;;;5015105;28;19925;-63
2024/03/08 03:29:16;;;;;;;;;;;;;;;;;;5013645;28;19964;-62
2024/03/08 03:31:42;;;;;;;;;;;;;;;;;;5016553;28;19917;-62
2024/03/08 03:34:08;;;;;;;;;;;;;;;;;;5018002;28;19914;-63
2024/03/08 03:36:35;;;;;;;;;;;;;;;;;;5014771;28;20375;-63
2024/03/08 03:39:15;;;;;;;;;;;;;;;;;;5017320;28;20299;-62
2024/03/08 03:41:41;;;;;;;;;;;;;;;;;;5012039;28;19914;-62
2024/03/08 03:44:07;;;;;;;;;;;;;;;;;;5012220;28;20372;-61
2024/03/08 03:46:33;;;;;;;;;;;;;;;;;;5015000;28;19963;-62
2024/03/08 03:48:59;;;;;;;;;;;;;;;;;;5014221;28;19967;-60
2024/03/08 03:51:25;;;;;;;;;;;;;;;;;;5017393;28;19979;-63
2024/03/08 03:53:52;;;;;;;;;;;;;;;;;;5016659;28;19921;-63
2024/03/08 03:56:18;;;;;;;;;;;;;;;;;;5017718;28;19957;-62
2024/03/08 03:58:44;;;;;;;;;;;;;;;;;;5014636;28;19967;-63
2024/03/08 04:01:10;;;;;;;;;;;;;;;;;;5013058;28;19929;-62
2024/03/08 04:03:36;;;;;;;;;;;;;;;;;;5015059;28;19914;-62
2024/03/08 04:06:03;;;;;;;;;;;;;;;;;;5015496;28;19996;-63
2024/03/08 04:08:29;;;;;;;;;;;;;;;;;;5012859;28;19960;-62
2024/03/08 04:10:55;;;;;;;;;;;;;;;;;;5015300;28;20381;-61
2024/03/08 04:13:21;;;;;;;;;;;;;;;;;;5016757;28;20004;-63
2024/03/08 04:15:48;;;;;;;;;;;;;;;;;;5021340;28;19960;-62
2024/03/08 04:18:14;;;;;;;;;;;;;;;;;;5015765;28;19925;-63
2024/03/08 04:20:40;;;;;;;;;;;;;;;;;;5029722;28;21135;-62
2024/03/08 04:23:06;;;;;;;;;;;;;;;;;;5027422;28;19989;-62
2024/03/08 04:25:32;;;;;;;;;;;;;;;;;;5016338;28;19950;-62
2024/03/08 04:27:57;;;;;;;;;;;;;;;;;;5018533;28;19917;-62
2024/03/08 04:30:24;;;;;;;;;;;;;;;;;;5012812;28;19918;-63
2024/03/08 04:32:50;;;;;;;;;;;;;;;;;;5019355;28;20360;-61
2024/03/08 04:35:15;;;;;;;;;;;;;;;;;;5015369;28;20008;-63
2024/03/08 04:37:41;;;;;;;;;;;;;;;;;;5012566;28;19956;-63
2024/03/08 04:40:07;;;;;;;;;;;;;;;;;;5018132;28;19913;-62
2024/03/08 04:42:33;;;;;;;;;;;;;;;;;;5020825;28;19914;-62
2024/03/08 04:44:59;;;;;;;;;;;;;;;;;;5013812;28;19913;-62
2024/03/08 04:47:25;;;;;;;;;;;;;;;;;;5011122;28;20379;-62
2024/03/08 04:49:51;;;;;;;;;;;;;;;;;;5008036;28;19956;-62
2024/03/08 04:52:16;;;;;;;;;;;;;;;;;;5003972;28;19928;-62
2024/03/08 04:54:42;;;;;;;;;;;;;;;;;;5005088;28;20324;-62
2024/03/08 04:57:08;;;;;;;;;;;;;;;;;;5010262;28;19971;-60
2024/03/08 04:59:34;;;;;;;;;;;;;;;;;;5007217;28;19914;-61
2024/03/08 05:02:00;;;;;;;;;;;;;;;;;;5009722;28;19921;-61
2024/03/08 05:04:26;;;;;;;;;;;;;;;;;;5007246;28;20769;-63
2024/03/08 05:06:53;;;;;;;;;;;;;;;;;;5017115;28;20461;-60
2024/03/08 05:09:19;;;;;;;;;;;;;;;;;;5018785;28;19917;-59
2024/03/08 05:11:45;;;;;;;;;;;;;;;;;;5020128;28;20000;-62
2024/03/08 05:14:11;;;;;;;;;;;;;;;;;;5018259;28;19917;-62
2024/03/08 05:16:37;;;;;;;;;;;;;;;;;;5016205;28;19929;-60
2024/03/08 05:19:03;;;;;;;;;;;;;;;;;;5016198;28;20415;-60
2024/03/08 05:21:28;;;;;;;;;;;;;;;;;;5015681;28;19920;-62
2024/03/08 05:23:54;;;;;;;;;;;;;;;;;;5019571;28;19913;-60
2024/03/08 05:26:22;;;;;;;;;;;;;;;;;;5015358;28;20006;-62
2024/03/08 05:28:48;;;;;;;;;;;;;;;;;;5017877;28;19983;-63
2024/03/08 05:31:14;;;;;;;;;;;;;;;;;;5015621;28;19929;-62
2024/03/08 05:33:42;;;;;;;;;;;;;;;;;;5011322;28;19913;-61
2024/03/08 05:36:08;;;;;;;;;;;;;;;;;;5013735;28;19917;-61
2024/03/08 05:38:34;;;;;;;;;;;;;;;;;;5013430;28;19952;-61
2024/03/08 05:41:01;;;;;;;;;;;;;;;;;;5013071;28;20324;-57
2024/03/08 05:43:26;;;;;;;;;;;;;;;;;;5011678;28;19914;-62
2024/03/08 05:45:52;;;;;;;;;;;;;;;;;;5014410;28;19944;-61
2024/03/08 05:48:18;;;;;;;;;;;;;;;;;;5012261;28;20035;-62
2024/03/08 05:50:44;;;;;;;;;;;;;;;;;;5008414;28;20392;-61
2024/03/08 05:53:10;;;;;;;;;;;;;;;;;;5010604;28;19991;-61
2024/03/08 05:55:36;;;;;;;;;;;;;;;;;;5010267;28;20088;-61
2024/03/08 05:58:02;;;;;;;;;;;;;;;;;;5007015;28;19918;-60
2024/03/08 06:00:28;;;;;;;;;;;;;;;;;;5010889;28;19917;-61
2024/03/08 06:02:55;;;;;;;;;;;;;;;;;;5005931;28;19917;-59
2024/03/08 06:05:23;;;;;;;;;;;;;;;;;;5008417;28;19914;-59
2024/03/08 06:07:49;;;;;;;;;;;;;;;;;;5006968;28;20291;-62
2024/03/08 06:10:17;;;;;;;;;;;;;;;;;;5009155;28;19997;-62
2024/03/08 06:12:43;;;;;;;;;;;;;;;;;;5005923;28;20295;-60
2024/03/08 06:15:09;;;;;;;;;;;;;;;;;;5008957;28;19918;-62
2024/03/08 06:17:35;;;;;;;;;;;;;;;;;;5012584;28;19913;-61
2024/03/08 06:20:01;;;;;;;;;;;;;;;;;;5018846;28;19921;-60
2024/03/08 06:22:27;;;;;;;;;;;;;;;;;;5020440;28;19917;-60
2024/03/08 06:24:54;;;;;;;;;;;;;;;;;;5019851;28;20395;-60
2024/03/08 06:27:19;;;;;;;;;;;;;;;;;;5022383;28;19943;-61
2024/03/08 06:29:45;;;;;;;;;;;;;;;;;;5019386;28;19992;-60
2024/03/08 06:32:11;;;;;;;;;;;;;;;;;;5017928;28;19913;-61
2024/03/08 06:34:37;;;;;;;;;;;;;;;;;;5021219;28;19918;-61
2024/03/08 06:37:03;;;;;;;;;;;;;;;;;;5017191;28;19917;-60
2024/03/08 06:39:31;;;;;;;;;;;;;;;;;;5010893;28;20367;-60
2024/03/08 06:41:57;;;;;;;;;;;;;;;;;;5009227;28;19917;-60
2024/03/08 06:44:23;;;;;;;;;;;;;;;;;;5007129;28;19992;-60
2024/03/08 06:46:49;;;;;;;;;;;;;;;;;;5018294;28;19914;-61
2024/03/08 06:49:15;;;;;;;;;;;;;;;;;;5031400;28;19913;-60
2024/03/08 06:51:41;;;;;;;;;;;;;;;;;;5026973;28;20003;-61
2024/03/08 06:54:08;;;;;;;;;;;;;;;;;;5015583;28;19909;-61
2024/03/08 06:56:34;;;;;;;;;;;;;;;;;;5013145;28;20296;-60
2024/03/08 06:59:02;;;;;;;;;;;;;;;;;;5016761;28;19921;-61
2024/03/08 07:01:31;;;;;;;;;;;;;;;;;;5023609;28;19948;-62
2024/03/08 07:03:57;;;;;;;;;;;;;;;;;;5015443;28;20312;-61
2024/03/08 07:06:23;;;;;;;;;;;;;;;;;;5018820;28;19913;-60
2024/03/08 07:08:49;;;;;;;;;;;;;;;;;;5017476;28;20464;-61
2024/03/08 07:11:18;;;;;;;;;;;;;;;;;;5017837;28;19914;-60
2024/03/08 07:13:44;;;;;;;;;;;;;;;;;;5017032;28;19909;-60
2024/03/08 07:16:11;;;;;;;;;;;;;;;;;;5018590;28;19944;-61
2024/03/08 07:18:39;;;;;;;;;;;;;;;;;;5013477;28;19913;-61
2024/03/08 07:21:05;;;;;;;;;;;;;;;;;;5022818;28;19909;-61
2024/03/08 07:23:56;;;;;;;;;;;;;;;;;;5012640;28;19975;-56
2024/03/08 07:26:22;;;;;;;;;;;;;;;;;;5018290;28;20063;-61
2024/03/08 07:28:48;;;;;;;;;;;;;;;;;;5015392;28;19910;-60
2024/03/08 07:31:23;;;;;;;;;;;;;;;;;;5016568;28;19992;-61
2024/03/08 07:33:50;;;;;;;;;;;;;;;;;;5012006;28;20008;-59
2024/03/08 07:36:16;;;;;;;;;;;;;;;;;;5018488;28;20425;-62
2024/03/08 07:38:42;;;;;;;;;;;;;;;;;;5008268;28;19913;-61
2024/03/08 07:41:08;;;;;;;;;;;;;;;;;;5014044;28;19974;-60
2024/03/08 07:43:34;;;;;;;;;;;;;;;;;;5016563;28;20330;-61
2024/03/08 07:46:00;;;;;;;;;;;;;;;;;;5011914;28;19913;-61
2024/03/08 07:48:26;;;;;;;;;;;;;;;;;;5013386;28;20310;-62
2024/03/08 07:50:52;;;;;;;;;;;;;;;;;;5015485;28;19925;-62
2024/03/08 07:53:18;;;;;;;;;;;;;;;;;;5016799;28;19917;-60
2024/03/08 07:55:44;;;;;;;;;;;;;;;;;;5014384;28;19917;-61
2024/03/08 07:58:10;;;;;;;;;;;;;;;;;;5018124;28;20383;-61
2024/03/08 08:00:36;;;;;;;;;;;;;;;;;;5016219;28;20360;-61
2024/03/08 08:03:02;;;;;;;;;;;;;;;;;;5011752;28;19922;-61
2024/03/08 08:05:28;;;;;;;;;;;;;;;;;;5019528;28;20276;-59
2024/03/08 08:07:54;;;;;;;;;;;;;;;;;;5014522;28;19932;-62
2024/03/08 08:10:24;;;;;;;;;;;;;;;;;;5020166;28;19928;-61
2024/03/08 08:12:51;;;;;;;;;;;;;;;;;;5011860;28;19917;-60
2024/03/08 08:15:17;;;;;;;;;;;;;;;;;;5014678;28;19924;-61
2024/03/08 08:17:43;;;;;;;;;;;;;;;;;;5013955;28;20371;-61
2024/03/08 08:20:10;;;;;;;;;;;;;;;;;;5012077;28;19924;-61
2024/03/08 08:22:36;;;;;;;;;;;;;;;;;;5009356;28;20398;-60
2024/03/08 08:25:01;;;;;;;;;;;;;;;;;;4999413;28;19961;-60
2024/03/08 08:27:27;;;;;;;;;;;;;;;;;;5002739;28;21340;-62
2024/03/08 08:29:53;;;;;;;;;;;;;;;;;;5011981;28;20014;-62
2024/03/08 08:32:20;;;;;;;;;;;;;;;;;;5006416;28;20385;-62
2024/03/08 08:34:46;;;;;;;;;;;;;;;;;;5010143;28;19940;-61
2024/03/08 08:37:12;;;;;;;;;;;;;;;;;;5008000;28;20498;-61
2024/03/08 08:39:38;;;;;;;;;;;;;;;;;;5008032;28;19917;-61
2024/03/08 08:42:03;;;;;;;;;;;;;;;;;;5003259;28;20483;-62
2024/03/08 08:44:31;;;;;;;;;;;;;;;;;;5006590;28;19920;-61
2024/03/08 08:46:57;;;;;;;;;;;;;;;;;;5008213;28;19913;-62
2024/03/08 08:49:23;;;;;;;;;;;;;;;;;;5007834;28;19972;-62
2024/03/08 08:51:49;;;;;;;;;;;;;;;;;;5010262;28;19914;-62
2024/03/08 08:54:16;;;;;;;;;;;;;;;;;;5008139;28;21835;-59
2024/03/08 08:56:44;;;;;;;;;;;;;;;;;;5009482;28;19924;-62
2024/03/08 08:59:09;;;;;;;;;;;;;;;;;;5008976;28;19917;-60
2024/03/08 09:01:35;;;;;;;;;;;;;;;;;;5012589;28;19913;-62
2024/03/08 09:04:01;;;;;;;;;;;;;;;;;;5010428;28;19992;-62
2024/03/08 09:06:27;;;;;;;;;;;;;;;;;;5011457;28;19932;-61
2024/03/08 09:08:53;;;;;;;;;;;;;;;;;;5006970;28;19917;-60
2024/03/08 09:11:19;;;;;;;;;;;;;;;;;;5007390;28;19921;-62
2024/03/08 09:13:46;;;;;;;;;;;;;;;;;;5006593;28;20388;-62
2024/03/08 09:16:12;;;;;;;;;;;;;;;;;;5018222;28;19917;-62
2024/03/08 09:18:38;;;;;;;;;;;;;;;;;;5007149;28;19913;-63
2024/03/08 09:21:05;;;;;;;;;;;;;;;;;;5006205;28;19967;-62
2024/03/08 09:23:30;;;;;;;;;;;;;;;;;;5011370;28;19914;-59
2024/03/08 09:25:57;;;;;;;;;;;;;;;;;;5010912;28;19928;-61
2024/03/08 09:28:23;;;;;;;;;;;;;;;;;;5014784;28;19916;-61
2024/03/08 09:30:49;;;;;;;;;;;;;;;;;;4999703;28;20343;-61
2024/03/08 09:33:19;;;;;;;;;;;;;;;;;;4999054;28;19921;-62
2024/03/08 09:35:46;;;;;;;;;;;;;;;;;;5001350;28;19921;-60
2024/03/08 09:38:13;;;;;;;;;;;;;;;;;;5003019;28;19914;-60
2024/03/08 09:40:38;;;;;;;;;;;;;;;;;;5018187;28;19920;-61
2024/03/08 09:43:04;;;;;;;;;;;;;;;;;;5024612;28;19941;-61
2024/03/08 09:45:30;;;;;;;;;;;;;;;;;;5004523;28;19913;-62
2024/03/08 09:47:56;;;;;;;;;;;;;;;;;;5009987;28;20419;-62
2024/03/08 09:50:22;;;;;;;;;;;;;;;;;;5007966;28;19914;-62
2024/03/08 09:52:48;;;;;;;;;;;;;;;;;;5013638;28;20008;-62
2024/03/08 09:55:14;;;;;;;;;;;;;;;;;;5004825;28;19921;-60
2024/03/08 09:57:40;;;;;;;;;;;;;;;;;;5002680;28;19921;-58
2024/03/08 10:00:18;;;;;;;;;;;;;;;;;;5004379;28;20383;-60
2024/03/08 10:02:44;;;;;;;;;;;;;;;;;;5002895;28;20462;-60
2024/03/08 10:05:10;;;;;;;;;;;;;;;;;;5006133;28;19952;-61
2024/03/08 10:07:36;;;;;;;;;;;;;;;;;;5006441;28;20545;-62
2024/03/08 10:10:02;;;;;;;;;;;;;;;;;;5005322;28;19944;-59
2024/03/08 10:12:28;;;;;;;;;;;;;;;;;;5004947;28;19960;-61
2024/03/08 10:14:54;;;;;;;;;;;;;;;;;;5003029;28;19993;-61
2024/03/08 10:17:20;;;;;;;;;;;;;;;;;;5006896;28;19918;-63
2024/03/08 10:19:46;;;;;;;;;;;;;;;;;;5013979;28;19913;-61
2024/03/08 10:22:12;;;;;;;;;;;;;;;;;;5007283;28;19980;-61
2024/03/08 10:24:38;;;;;;;;;;;;;;;;;;5006637;28;19956;-63
2024/03/08 10:27:05;;;;;;;;;;;;;;;;;;5002705;28;19921;-60
2024/03/08 10:29:31;;;;;;;;;;;;;;;;;;5004850;28;20777;-63
2024/03/08 10:31:57;;;;;;;;;;;;;;;;;;5004489;28;19925;-62
2024/03/08 10:34:23;;;;;;;;;;;;;;;;;;5004256;28;20419;-62
2024/03/08 10:36:49;;;;;;;;;;;;;;;;;;5001061;28;20070;-62
2024/03/08 10:39:15;;;;;;;;;;;;;;;;;;5003303;28;19913;-63
2024/03/08 10:41:40;;;;;;;;;;;;;;;;;;5003327;28;19915;-63
2024/03/08 10:44:08;;;;;;;;;;;;;;;;;;5004129;28;19925;-61
2024/03/08 10:46:34;;;;;;;;;;;;;;;;;;5005654;28;19914;-63
2024/03/08 10:49:02;;;;;;;;;;;;;;;;;;5012435;28;20302;-63
2024/03/08 10:51:28;;;;;;;;;;;;;;;;;;5005674;28;19944;-62
2024/03/08 10:53:54;;;;;;;;;;;;;;;;;;5003113;28;20375;-63
2024/03/08 10:56:20;;;;;;;;;;;;;;;;;;5014747;28;19921;-62
2024/03/08 10:58:46;;;;;;;;;;;;;;;;;;5003686;28;20406;-62
2024/03/08 11:01:12;;;;;;;;;;;;;;;;;;5006453;28;19988;-63
2024/03/08 11:03:37;;;;;;;;;;;;;;;;;;4999640;28;19959;-63
2024/03/08 11:06:04;;;;;;;;;;;;;;;;;;5003985;28;19940;-63
2024/03/08 11:08:31;;;;;;;;;;;;;;;;;;5012247;28;19936;-63
2024/03/08 11:10:56;;;;;;;;;;;;;;;;;;5003203;28;19953;-62
2024/03/08 11:13:22;;;;;;;;;;;;;;;;;;5001346;28;19949;-62
2024/03/08 11:15:48;;;;;;;;;;;;;;;;;;5003323;28;19917;-60
2024/03/08 11:18:14;;;;;;;;;;;;;;;;;;5002342;28;19913;-62
2024/03/08 11:20:40;;;;;;;;;;;;;;;;;;5003893;28;20304;-62
2024/03/08 11:23:06;;;;;;;;;;;;;;;;;;5002983;28;19920;-63
2024/03/08 11:25:32;;;;;;;;;;;;;;;;;;5004084;28;19960;-63
2024/03/08 11:27:58;;;;;;;;;;;;;;;;;;5001044;28;19976;-62
2024/03/08 11:30:24;;;;;;;;;;;;;;;;;;5003292;28;19922;-62
2024/03/08 11:32:49;;;;;;;;;;;;;;;;;;5018092;28;19921;-60
2024/03/08 11:35:17;;;;;;;;;;;;;;;;;;5007929;28;19926;-62
2024/03/08 11:37:44;;;;;;;;;;;;;;;;;;5018631;28;20008;-63
2024/03/08 11:40:12;;;;;;;;;;;;;;;;;;5004547;28;20391;-61
2024/03/08 11:42:37;;;;;;;;;;;;;;;;;;5010069;28;20008;-63
2024/03/08 11:45:04;;;;;;;;;;;;;;;;;;5004554;28;20008;-62
2024/03/08 11:47:31;;;;;;;;;;;;;;;;;;5002836;28;19945;-62
2024/03/08 11:49:57;;;;;;;;;;;;;;;;;;5001953;28;19972;-63
2024/03/08 11:52:25;;;;;;;;;;;;;;;;;;5002432;28;19957;-63
2024/03/08 11:54:50;;;;;;;;;;;;;;;;;;5004043;28;19923;-62
2024/03/08 11:57:16;;;;;;;;;;;;;;;;;;5001401;28;19926;-61
2024/03/08 11:59:42;;;;;;;;;;;;;;;;;;5002965;28;19917;-62
2024/03/08 12:02:11;;;;;;;;;;;;;;;;;;5001501;28;20248;-62
2024/03/08 12:04:37;;;;;;;;;;;;;;;;;;5006958;28;20091;-62
2024/03/08 12:07:08;;;;;;;;;;;;;;;;;;5008256;28;20330;-63
2024/03/08 12:09:36;;;;;;;;;;;;;;;;;;5008139;28;19914;-63
2024/03/08 12:12:03;;;;;;;;;;;;;;;;;;5015646;28;20340;-62
2024/03/08 12:14:28;;;;;;;;;;;;;;;;;;5019063;28;19913;-60
2024/03/08 12:16:54;;;;;;;;;;;;;;;;;;5018904;28;20408;-62
2024/03/08 12:19:20;;;;;;;;;;;;;;;;;;5014105;28;19956;-63
2024/03/08 12:21:48;;;;;;;;;;;;;;;;;;5005538;28;19975;-63
2024/03/08 12:24:16;;;;;;;;;;;;;;;;;;5008639;28;19913;-62
2024/03/08 12:26:42;;;;;;;;;;;;;;;;;;5014676;28;19920;-62
2024/03/08 12:29:08;;;;;;;;;;;;;;;;;;5019911;28;19918;-60
2024/03/08 12:31:34;;;;;;;;;;;;;;;;;;5007213;28;19959;-62
2024/03/08 12:33:59;;;;;;;;;;;;;;;;;;5012156;28;20907;-63
2024/03/08 12:36:25;;;;;;;;;;;;;;;;;;5003577;28;19981;-60
2024/03/08 12:38:51;;;;;;;;;;;;;;;;;;5011604;28;20374;-62
2024/03/08 12:41:18;;;;;;;;;;;;;;;;;;5009186;28;19914;-61
2024/03/08 12:43:48;;;;;;;;;;;;;;;;;;5005284;28;19952;-60
2024/03/08 12:46:14;;;;;;;;;;;;;;;;;;5007581;28;20293;-59
2024/03/08 12:48:40;;;;;;;;;;;;;;;;;;5008504;28;20072;-62
2024/03/08 12:51:07;;;;;;;;;;;;;;;;;;5014953;28;19996;-61
2024/03/08 12:53:33;;;;;;;;;;;;;;;;;;5021158;28;19963;-62
2024/03/08 12:55:58;;;;;;;;;;;;;;;;;;5014869;28;19917;-59
2024/03/08 12:58:25;;;;;;;;;;;;;;;;;;5013379;28;19920;-62
2024/03/08 13:00:51;;;;;;;;;;;;;;;;;;5010017;28;20307;-62
2024/03/08 13:03:17;;;;;;;;;;;;;;;;;;5004115;28;19963;-62
2024/03/08 13:05:43;;;;;;;;;;;;;;;;;;5003584;28;20295;-61
2024/03/08 13:08:13;;;;;;;;;;;;;;;;;;5008545;28;20017;-62
2024/03/08 13:10:39;;;;;;;;;;;;;;;;;;5006895;28;19920;-62
2024/03/08 13:13:04;;;;;;;;;;;;;;;;;;5011300;28;19922;-61
2024/03/08 13:15:30;;;;;;;;;;;;;;;;;;5002746;28;19932;-62
2024/03/08 13:18:00;;;;;;;;;;;;;;;;;;5003328;28;19916;-62
2024/03/08 13:20:28;;;;;;;;;;;;;;;;;;5005340;28;19914;-63
2024/03/08 13:22:54;;;;;;;;;;;;;;;;;;5008527;28;19914;-62
2024/03/08 13:25:20;;;;;;;;;;;;;;;;;;5004182;28;19924;-62
2024/03/08 13:27:47;;;;;;;;;;;;;;;;;;5012716;28;19996;-63
2024/03/08 13:30:13;;;;;;;;;;;;;;;;;;5011359;28;19987;-61
2024/03/08 13:32:40;;;;;;;;;;;;;;;;;;5010144;28;19913;-61
2024/03/08 13:35:12;;;;;;;;;;;;;;;;;;5011001;28;19944;-63
2024/03/08 13:37:39;;;;;;;;;;;;;;;;;;5017789;28;20336;-62
2024/03/08 13:40:05;;;;;;;;;;;;;;;;;;5015784;28;20009;-62
2024/03/08 13:42:31;;;;;;;;;;;;;;;;;;5016601;28;20012;-62
2024/03/08 13:44:57;;;;;;;;;;;;;;;;;;5018937;28;19914;-63
2024/03/08 13:47:24;;;;;;;;;;;;;;;;;;5014902;28;20021;-62
2024/03/08 13:49:50;;;;;;;;;;;;;;;;;;5019905;28;20015;-62
2024/03/08 13:52:16;;;;;;;;;;;;;;;;;;5011800;28;19914;-63
2024/03/08 13:54:42;;;;;;;;;;;;;;;;;;5008833;28;20013;-62
2024/03/08 13:57:08;;;;;;;;;;;;;;;;;;5009911;28;19926;-62
2024/03/08 13:59:35;;;;;;;;;;;;;;;;;;5005971;28;19914;-62
2024/03/08 14:02:01;;;;;;;;;;;;;;;;;;5013966;28;19971;-60
2024/03/08 14:04:28;;;;;;;;;;;;;;;;;;5011021;28;20011;-62
2024/03/08 14:06:56;;;;;;;;;;;;;;;;;;5010115;28;19921;-63
2024/03/08 14:09:24;;;;;;;;;;;;;;;;;;5007232;28;19914;-62
2024/03/08 14:11:53;;;;;;;;;;;;;;;;;;5006643;28;19921;-62
2024/03/08 14:14:20;;;;;;;;;;;;;;;;;;5011288;28;19936;-63
2024/03/08 14:16:46;;;;;;;;;;;;;;;;;;5010939;28;19921;-62
2024/03/08 14:19:14;;;;;;;;;;;;;;;;;;5011656;28;20063;-62
2024/03/08 14:21:41;;;;;;;;;;;;;;;;;;5007445;28;19918;-61
2024/03/08 14:24:07;;;;;;;;;;;;;;;;;;5017753;28;19980;-60
2024/03/08 14:26:34;;;;;;;;;;;;;;;;;;5007064;28;19917;-62
2024/03/08 14:28:59;;;;;;;;;;;;;;;;;;5007960;28;19929;-62
2024/03/08 14:31:25;;;;;;;;;;;;;;;;;;5008772;28;19913;-62
2024/03/08 14:33:52;;;;;;;;;;;;;;;;;;5001231;28;19920;-61
2024/03/08 14:36:19;;;;;;;;;;;;;;;;;;5008818;28;19969;-62
2024/03/08 14:38:47;;;;;;;;;;;;;;;;;;5012341;28;19983;-63
2024/03/08 14:41:14;;;;;;;;;;;;;;;;;;5014760;28;19913;-62
2024/03/08 14:43:40;;;;;;;;;;;;;;;;;;5015299;28;20372;-62
2024/03/08 14:46:06;;;;;;;;;;;;;;;;;;5020690;28;19971;-63
2024/03/08 14:48:32;;;;;;;;;;;;;;;;;;5010095;28;19913;-62
2024/03/08 14:50:58;;;;;;;;;;;;;;;;;;5014903;28;19928;-61
2024/03/08 14:53:25;;;;;;;;;;;;;;;;;;5012266;28;20350;-61
2024/03/08 14:55:51;;;;;;;;;;;;;;;;;;5015905;28;19920;-61
2024/03/08 14:58:17;;;;;;;;;;;;;;;;;;5009316;28;19913;-62
2024/03/08 15:00:43;;;;;;;;;;;;;;;;;;5010239;28;20020;-62
2024/03/08 15:03:12;;;;;;;;;;;;;;;;;;5012778;28;20002;-61
2024/03/08 15:05:42;;;;;;;;;;;;;;;;;;5015296;28;19956;-62
2024/03/08 15:08:10;;;;;;;;;;;;;;;;;;5016733;28;19948;-62
2024/03/08 15:10:36;;;;;;;;;;;;;;;;;;5017957;28;19944;-61
2024/03/08 15:13:08;;;;;;;;;;;;;;;;;;5017717;28;19913;-62
2024/03/08 15:15:34;;;;;;;;;;;;;;;;;;5024741;28;19961;-62
2024/03/08 15:18:03;;;;;;;;;;;;;;;;;;5024045;28;19921;-62
2024/03/08 15:20:34;;;;;;;;;;;;;;;;;;5012992;28;19913;-63
2024/03/08 15:23:00;;;;;;;;;;;;;;;;;;5014427;28;19917;-62
2024/03/08 15:25:27;;;;;;;;;;;;;;;;;;5015357;28;19924;-62
2024/03/08 15:27:53;;;;;;;;;;;;;;;;;;5016488;28;19940;-63
2024/03/08 15:30:22;;;;;;;;;;;;;;;;;;5017363;28;19936;-63
2024/03/08 15:32:48;;;;;;;;;;;;;;;;;;5015032;28;20305;-63
2024/03/08 15:35:14;;;;;;;;;;;;;;;;;;5017064;28;19924;-60
2024/03/08 15:37:42;;;;;;;;;;;;;;;;;;5007053;28;19913;-62
2024/03/08 15:40:07;;;;;;;;;;;;;;;;;;5011569;28;19916;-61
2024/03/08 15:42:34;;;;;;;;;;;;;;;;;;5013479;28;19921;-62
2024/03/08 15:45:01;;;;;;;;;;;;;;;;;;5013780;28;19917;-62
2024/03/08 15:47:27;;;;;;;;;;;;;;;;;;5014000;28;19925;-62
2024/03/08 15:49:52;;;;;;;;;;;;;;;;;;5011634;28;19979;-63
2024/03/08 15:52:18;;;;;;;;;;;;;;;;;;5012773;28;19920;-63
2024/03/08 15:54:45;;;;;;;;;;;;;;;;;;5008686;28;20386;-62
2024/03/08 15:57:15;;;;;;;;;;;;;;;;;;5007646;28;19914;-61
2024/03/08 15:59:41;;;;;;;;;;;;;;;;;;5006907;28;19968;-63
2024/03/08 16:02:07;;;;;;;;;;;;;;;;;;5008375;28;19917;-63
2024/03/08 16:04:33;;;;;;;;;;;;;;;;;;5009221;28;19921;-62
2024/03/08 16:07:00;;;;;;;;;;;;;;;;;;5005443;28;19918;-61
2024/03/08 16:09:29;;;;;;;;;;;;;;;;;;5012224;28;20418;-61
2024/03/08 16:11:55;;;;;;;;;;;;;;;;;;5010801;28;19963;-62
2024/03/08 16:14:21;;;;;;;;;;;;;;;;;;5007692;28;20074;-62
2024/03/08 16:16:48;;;;;;;;;;;;;;;;;;5006160;28;19968;-62
2024/03/08 16:19:14;;;;;;;;;;;;;;;;;;5003121;28;20384;-62
2024/03/08 16:21:39;;;;;;;;;;;;;;;;;;5007091;28;19958;-61
2024/03/08 16:24:06;;;;;;;;;;;;;;;;;;5004095;28;20360;-62
2024/03/08 16:26:34;;;;;;;;;;;;;;;;;;5006808;28;20012;-61
2024/03/08 16:29:00;;;;;;;;;;;;;;;;;;5009579;28;20276;-61
2024/03/08 16:31:26;;;;;;;;;;;;;;;;;;5003709;28;19980;-62
2024/03/08 16:33:52;;;;;;;;;;;;;;;;;;5000147;28;21133;-62
2024/03/08 16:36:19;;;;;;;;;;;;;;;;;;5002682;28;19993;-60
2024/03/08 16:38:46;;;;;;;;;;;;;;;;;;5007780;28;20036;-63
2024/03/08 16:41:12;;;;;;;;;;;;;;;;;;5005500;28;19957;-62